Time;durP1;ratioP1;P1;durP2;ratioP2;P2;SDS_P1;SDS_P2;PMS_P1;PMS_P2;Temp;Humidity;BMP_temperature;BMP_pressure;BME280_temperature;BME280_humidity;BME280_pressure;Samples;Min_cycle;Max_cycle;Signal;HPM_P1;HPM_P2
2023/09/09 00:00:20;;;;;;;;;;;;;;;17.96;100.00;100597.98;178207;1257;45867;-87
2023/09/09 00:04:43;;;;;;;;;;;;;;;17.97;100.00;100598.08;178122;1257;61441;-87
2023/09/09 00:08:46;;;;;;;;;;;;;;;17.99;100.00;100595.46;178753;1258;43885;-87
2023/09/09 00:12:49;;;;;;;;;;;;;;;17.99;100.00;100594.27;178838;1258;46184;-87
2023/09/09 00:16:53;;;;;;;;;;;;;;;17.99;100.00;100588.84;178277;1257;45702;-88
2023/09/09 00:20:56;;;;;;;;;;;;;;;17.95;100.00;100587.11;179023;1257;45832;-87
2023/09/09 00:24:59;;;;;;;;;;;;;;;17.89;100.00;100581.05;179201;1257;59369;-87
2023/09/09 00:29:03;;;;;;;;;;;;;;;17.84;100.00;100581.89;178293;1257;45759;-87
2023/09/09 00:33:09;;;;;;;;;;;;;;;17.79;100.00;100580.03;179049;1257;45492;-87
2023/09/09 00:37:12;;;;;;;;;;;;;;;17.70;100.00;100579.59;178613;1257;45731;-87
2023/09/09 00:41:17;;;;;;;;;;;;;;;17.59;100.00;100581.28;178297;1257;45782;-87
2023/09/09 00:45:20;;;;;;;;;;;;;;;17.52;100.00;100578.67;178262;1257;59142;-86
2023/09/09 00:49:24;;;;;;;;;;;;;;;17.46;100.00;100580.33;178636;1260;45959;-88
2023/09/09 00:53:27;;;;;;;;;;;;;;;17.37;100.00;100581.09;178382;1257;45815;-87
2023/09/09 00:57:30;;;;;;;;;;;;;;;17.35;100.00;100586.56;178520;1257;45798;-87
2023/09/09 01:01:33;;;;;;;;;;;;;;;17.32;100.00;100586.92;177926;1258;45782;-87
2023/09/09 01:05:38;;;;;;;;;;;;;;;17.26;100.00;100591.80;178140;1257;58437;-87
2023/09/09 01:09:41;;;;;;;;;;;;;;;17.18;100.00;100590.27;178244;1257;45782;-87
2023/09/09 01:13:45;;;;;;;;;;;;;;;17.16;100.00;100591.55;178776;1257;45837;-87
2023/09/09 01:17:49;;;;;;;;;;;;;;;17.14;100.00;100595.77;178025;1257;45840;-87
2023/09/09 01:21:54;;;;;;;;;;;;;;;17.15;100.00;100601.17;178225;1257;45901;-87
2023/09/09 01:25:58;;;;;;;;;;;;;;;17.13;100.00;100598.88;177927;1258;58160;-88
2023/09/09 01:30:01;;;;;;;;;;;;;;;17.09;100.00;100598.73;177743;1257;45827;-87
2023/09/09 01:34:04;;;;;;;;;;;;;;;17.04;100.00;100595.20;178532;1257;45910;-87
2023/09/09 01:38:08;;;;;;;;;;;;;;;17.01;100.00;100596.04;178364;1257;45923;-87
2023/09/09 01:42:11;;;;;;;;;;;;;;;17.02;100.00;100597.88;178757;1258;46614;-87
2023/09/09 01:46:15;;;;;;;;;;;;;;;17.04;100.00;100599.43;178084;1257;59020;-87
2023/09/09 01:50:18;;;;;;;;;;;;;;;17.03;100.00;100597.19;179027;1257;45880;-87
2023/09/09 01:54:22;;;;;;;;;;;;;;;17.00;100.00;100598.44;177873;1257;45830;-87
2023/09/09 01:58:25;;;;;;;;;;;;;;;16.97;100.00;100599.34;178753;1260;45847;-87
2023/09/09 02:02:28;;;;;;;;;;;;;;;16.96;100.00;100602.52;178557;1257;45686;-87
2023/09/09 02:06:32;;;;;;;;;;;;;;;16.95;100.00;100601.77;178147;1257;58344;-87
2023/09/09 02:10:35;;;;;;;;;;;;;;;16.87;100.00;100596.63;178410;1257;45859;-87
2023/09/09 02:14:38;;;;;;;;;;;;;;;16.82;100.00;100597.02;178488;1261;45939;-87
2023/09/09 02:18:41;;;;;;;;;;;;;;;16.73;100.00;100595.10;178449;1258;46038;-88
2023/09/09 02:22:45;;;;;;;;;;;;;;;16.64;100.00;100593.65;178678;1257;45925;-87
2023/09/09 02:26:48;;;;;;;;;;;;;;;16.60;100.00;100591.40;178050;1257;58114;-88
2023/09/09 02:30:51;;;;;;;;;;;;;;;16.54;100.00;100593.45;178908;1257;45881;-87
2023/09/09 02:34:57;;;;;;;;;;;;;;;16.49;100.00;100590.15;178496;1257;45897;-87
2023/09/09 02:39:00;;;;;;;;;;;;;;;16.47;100.00;100592.19;179087;1257;45939;-87
2023/09/09 02:43:03;;;;;;;;;;;;;;;16.42;100.00;100596.77;179087;1257;45984;-88
2023/09/09 02:47:07;;;;;;;;;;;;;;;16.34;100.00;100592.77;178514;1257;58147;-88
2023/09/09 02:51:10;;;;;;;;;;;;;;;16.33;100.00;100596.23;178073;1256;45821;-87
2023/09/09 02:55:14;;;;;;;;;;;;;;;16.36;100.00;100592.04;178662;1256;45894;-88
2023/09/09 02:59:17;;;;;;;;;;;;;;;16.36;100.00;100589.98;178242;1260;45887;-87
2023/09/09 03:03:21;;;;;;;;;;;;;;;16.44;100.00;100591.73;179627;1257;45763;-87
2023/09/09 03:07:25;;;;;;;;;;;;;;;16.49;100.00;100592.30;178744;1257;58043;-87
2023/09/09 03:11:28;;;;;;;;;;;;;;;16.50;100.00;100592.95;177903;1257;45766;-87
2023/09/09 03:15:31;;;;;;;;;;;;;;;16.56;100.00;100596.22;178828;1257;45790;-88
2023/09/09 03:19:34;;;;;;;;;;;;;;;16.60;100.00;100601.95;177754;1256;45759;-87
2023/09/09 03:23:37;;;;;;;;;;;;;;;16.58;100.00;100604.14;179472;1256;45022;-88
2023/09/09 03:27:41;;;;;;;;;;;;;;;16.56;100.00;100606.07;179611;1256;59327;-88
2023/09/09 03:31:44;;;;;;;;;;;;;;;16.54;100.00;100608.22;178627;1257;45913;-88
2023/09/09 03:35:48;;;;;;;;;;;;;;;16.53;100.00;100610.70;178241;1257;43658;-87
2023/09/09 03:39:51;;;;;;;;;;;;;;;16.43;100.00;100610.45;178424;1257;48527;-87
2023/09/09 03:43:54;;;;;;;;;;;;;;;16.35;100.00;100614.69;178058;1256;45889;-87
2023/09/09 03:47:57;;;;;;;;;;;;;;;16.27;100.00;100618.67;178092;1257;57992;-87
2023/09/09 03:52:02;;;;;;;;;;;;;;;16.25;100.00;100614.54;177737;1258;45883;-88
2023/09/09 03:56:06;;;;;;;;;;;;;;;16.25;100.00;100614.98;178881;1257;45838;-89
2023/09/09 04:00:10;;;;;;;;;;;;;;;16.25;100.00;100614.98;178785;1257;45766;-87
2023/09/09 04:04:13;;;;;;;;;;;;;;;16.22;100.00;100613.48;179169;1257;43809;-87
2023/09/09 04:08:16;;;;;;;;;;;;;;;16.21;100.00;100614.48;177923;1257;59303;-88
2023/09/09 04:12:20;;;;;;;;;;;;;;;16.22;100.00;100615.77;178664;1257;45887;-87
2023/09/09 04:16:23;;;;;;;;;;;;;;;16.21;100.00;100613.27;177889;1256;45879;-88
2023/09/09 04:20:26;;;;;;;;;;;;;;;16.18;100.00;100610.89;179137;1257;45640;-87
2023/09/09 04:24:29;;;;;;;;;;;;;;;16.15;100.00;100606.61;178605;1257;48177;-88
2023/09/09 04:28:32;;;;;;;;;;;;;;;16.13;100.00;100610.73;179850;1257;58712;-87
2023/09/09 04:32:36;;;;;;;;;;;;;;;16.12;100.00;100620.14;177545;1257;45795;-87
2023/09/09 04:36:40;;;;;;;;;;;;;;;16.17;100.00;100620.81;178460;1258;45834;-87
2023/09/09 04:40:43;;;;;;;;;;;;;;;16.22;100.00;100625.48;178718;1257;44602;-88
2023/09/09 04:44:46;;;;;;;;;;;;;;;16.30;100.00;100632.70;177855;1257;45936;-88
2023/09/09 04:48:53;;;;;;;;;;;;;;;16.66;100.00;100625.08;177707;1257;58897;-88
2023/09/09 04:52:56;;;;;;;;;;;;;;;17.19;100.00;100624.41;178554;1257;45720;-87
2023/09/09 04:56:59;;;;;;;;;;;;;;;17.48;100.00;100624.75;178674;1256;45770;-88
2023/09/09 05:01:03;;;;;;;;;;;;;;;17.72;100.00;100626.05;178037;1257;45730;-88
2023/09/09 05:05:07;;;;;;;;;;;;;;;17.88;100.00;100630.09;178509;1257;45902;-88
2023/09/09 05:09:10;;;;;;;;;;;;;;;18.18;100.00;100629.04;177959;1257;58081;-87
2023/09/09 05:13:13;;;;;;;;;;;;;;;18.48;100.00;100625.08;178703;1257;45844;-87
2023/09/09 05:17:16;;;;;;;;;;;;;;;18.79;100.00;100625.20;177839;1257;44101;-87
2023/09/09 05:21:19;;;;;;;;;;;;;;;19.20;100.00;100629.76;178642;1258;45828;-87
2023/09/09 05:25:22;;;;;;;;;;;;;;;19.58;100.00;100633.54;178734;1257;45904;-87
2023/09/09 05:29:26;;;;;;;;;;;;;;;20.00;100.00;100632.27;179799;1258;59638;-88
2023/09/09 05:33:29;;;;;;;;;;;;;;;20.41;100.00;100636.23;180134;1262;43604;-88
2023/09/09 05:37:32;;;;;;;;;;;;;;;20.75;99.97;100636.73;178737;1257;45747;-88
2023/09/09 05:41:36;;;;;;;;;;;;;;;20.95;97.61;100634.98;179370;1256;43852;-86
2023/09/09 05:45:40;;;;;;;;;;;;;;;21.17;96.95;100634.88;178856;1257;45861;-85
2023/09/09 05:49:43;;;;;;;;;;;;;;;21.46;95.93;100629.85;178732;1257;59742;-87
2023/09/09 05:53:47;;;;;;;;;;;;;;;21.68;94.66;100638.91;178945;1258;45897;-88
2023/09/09 05:57:52;;;;;;;;;;;;;;;21.86;93.14;100638.30;178662;1260;45891;-88
2023/09/09 06:01:55;;;;;;;;;;;;;;;21.90;93.02;100636.14;178967;1257;46363;-88
2023/09/09 06:05:58;;;;;;;;;;;;;;;21.95;93.10;100643.55;178727;1257;46354;-88
2023/09/09 06:10:02;;;;;;;;;;;;;;;21.92;93.80;100641.93;178916;1256;58090;-89
2023/09/09 06:14:05;;;;;;;;;;;;;;;21.85;94.78;100642.79;178741;1257;45723;-86
2023/09/09 06:18:09;;;;;;;;;;;;;;;22.01;95.41;100644.23;178821;1256;45925;-86
2023/09/09 06:22:12;;;;;;;;;;;;;;;22.27;95.05;100647.33;178810;1258;45939;-86
2023/09/09 06:26:15;;;;;;;;;;;;;;;22.56;94.57;100645.81;178826;1258;46145;-86
2023/09/09 06:30:19;;;;;;;;;;;;;;;22.74;93.48;100645.34;179040;1257;59637;-87
2023/09/09 06:34:22;;;;;;;;;;;;;;;22.77;91.71;100644.95;179459;1260;45907;-87
2023/09/09 06:38:26;;;;;;;;;;;;;;;22.86;92.85;100643.10;179511;1257;45821;-87
2023/09/09 06:42:29;;;;;;;;;;;;;;;22.89;91.54;100641.14;179064;1258;45831;-88
2023/09/09 06:46:33;;;;;;;;;;;;;;;22.83;91.01;100646.17;179104;1257;45896;-88
2023/09/09 06:50:36;;;;;;;;;;;;;;;22.65;92.70;100644.83;178992;1258;60154;-88
2023/09/09 06:54:40;;;;;;;;;;;;;;;22.59;93.89;100648.91;179027;1257;45709;-88
2023/09/09 06:58:44;;;;;;;;;;;;;;;22.70;94.14;100650.41;178847;1256;45958;-88
2023/09/09 07:02:47;;;;;;;;;;;;;;;22.84;93.21;100651.97;178265;1256;45950;-88
2023/09/09 07:06:51;;;;;;;;;;;;;;;22.95;93.58;100647.33;178506;1257;45948;-87
2023/09/09 07:11:14;;;;;;;;;;;;;;;23.25;95.34;100645.53;179895;1257;56872;-87
2023/09/09 07:15:18;;;;;;;;;;;;;;;23.54;93.13;100650.86;178784;1257;45785;-86
2023/09/09 07:19:21;;;;;;;;;;;;;;;23.86;92.27;100654.92;179103;1256;45811;-87
2023/09/09 07:23:25;;;;;;;;;;;;;;;24.18;89.55;100653.48;178814;1256;45863;-87
2023/09/09 07:27:29;;;;;;;;;;;;;;;24.43;87.21;100652.95;179006;1257;45882;-87
2023/09/09 07:31:32;;;;;;;;;;;;;;;24.61;85.40;100652.45;179171;1257;59898;-87
2023/09/09 07:35:38;;;;;;;;;;;;;;;24.69;86.03;100655.65;179091;1256;45932;-89
2023/09/09 07:39:45;;;;;;;;;;;;;;;24.85;85.60;100654.40;178959;1258;45899;-89
2023/09/09 07:43:49;;;;;;;;;;;;;;;25.02;84.46;100650.52;178955;1257;45896;-87
2023/09/09 07:47:55;;;;;;;;;;;;;;;25.22;84.67;100650.46;179166;1256;45772;-87
2023/09/09 07:52:02;;;;;;;;;;;;;;;25.35;81.82;100652.80;179301;1257;59852;-88
2023/09/09 07:56:06;;;;;;;;;;;;;;;25.44;82.29;100648.88;179064;1256;47380;-87
2023/09/09 08:00:09;;;;;;;;;;;;;;;25.53;81.63;100647.36;179083;1257;45843;-87
2023/09/09 08:04:14;;;;;;;;;;;;;;;25.62;81.46;100650.29;179150;1256;45891;-87
2023/09/09 08:08:18;;;;;;;;;;;;;;;25.68;81.93;100649.76;179264;1256;45859;-87
2023/09/09 08:12:25;;;;;;;;;;;;;;;25.83;81.53;100645.69;179442;1257;59864;-88
2023/09/09 08:16:30;;;;;;;;;;;;;;;26.03;81.41;100644.07;180033;1256;45088;-88
2023/09/09 08:20:36;;;;;;;;;;;;;;;26.19;79.17;100643.84;179285;1256;44829;-88
2023/09/09 08:24:40;;;;;;;;;;;;;;;26.34;79.83;100641.46;179401;1257;45818;-88
2023/09/09 08:28:44;;;;;;;;;;;;;;;26.50;79.31;100635.16;179524;1257;44358;-88
2023/09/09 08:32:47;;;;;;;;;;;;;;;26.66;79.92;100632.83;179202;1256;59232;-88
2023/09/09 08:36:51;;;;;;;;;;;;;;;26.77;79.29;100631.80;179580;1256;45784;-88
2023/09/09 08:41:08;;;;;;;;;;;;;;;26.87;77.06;100632.39;179646;1257;46228;-88
2023/09/09 08:45:18;;;;;;;;;;;;;;;27.00;77.85;100636.84;179171;1257;45721;-88
2023/09/09 08:49:24;;;;;;;;;;;;;;;27.16;78.34;100629.73;179650;1256;45756;-89
2023/09/09 08:53:28;;;;;;;;;;;;;;;27.30;77.35;100621.54;179155;1256;56889;-89
2023/09/09 08:57:32;;;;;;;;;;;;;;;27.40;77.46;100620.28;179725;1257;44388;-89
2023/09/09 09:01:37;;;;;;;;;;;;;;;27.51;77.17;100618.52;179603;1256;45812;-89
2023/09/09 09:05:42;;;;;;;;;;;;;;;27.64;76.60;100612.44;179544;1257;45952;-89
2023/09/09 09:09:46;;;;;;;;;;;;;;;27.74;73.99;100612.83;179446;1256;45930;-89
2023/09/09 09:13:50;;;;;;;;;;;;;;;27.88;74.85;100607.45;179495;1256;60103;-89
2023/09/09 09:17:54;;;;;;;;;;;;;;;28.04;72.69;100601.98;179300;1256;44079;-88
2023/09/09 09:21:58;;;;;;;;;;;;;;;28.07;70.47;100597.43;179583;1257;45702;-89
2023/09/09 09:26:02;;;;;;;;;;;;;;;28.08;70.09;100594.42;179483;1256;44238;-89
2023/09/09 09:30:06;;;;;;;;;;;;;;;28.14;69.28;100591.46;179502;1256;45895;-89
2023/09/09 09:34:17;;;;;;;;;;;;;;;28.19;69.99;100591.77;179479;1258;57774;-89
2023/09/09 09:38:24;;;;;;;;;;;;;;;28.29;70.39;100590.96;179211;1256;45741;-90
2023/09/09 09:42:27;;;;;;;;;;;;;;;28.41;68.04;100588.02;179441;1257;45861;-89
2023/09/09 09:46:31;;;;;;;;;;;;;;;28.53;67.42;100592.19;179554;1256;45875;-90
2023/09/09 09:55:56;;;;;;;;;;;;;;;28.62;65.31;100584.73;179695;1259;58739;-90
2023/09/09 10:00:38;;;;;;;;;;;;;;;28.68;65.53;100585.77;180078;1256;45816;-90
2023/09/09 10:05:47;;;;;;;;;;;;;;;28.78;65.14;100578.30;179853;1263;43513;-90
2023/09/09 10:09:55;;;;;;;;;;;;;;;28.96;65.18;100570.64;179340;1265;44121;-90
2023/09/09 10:14:20;;;;;;;;;;;;;;;29.11;63.72;100570.73;179628;1264;45775;-90
2023/09/09 10:18:25;;;;;;;;;;;;;;;29.15;61.22;100566.42;179658;1264;59361;-89
2023/09/09 10:22:31;;;;;;;;;;;;;;;29.31;61.01;100560.22;179292;1264;44569;-89
2023/09/09 10:26:38;;;;;;;;;;;;;;;29.40;59.75;100561.66;179054;1264;45769;-89
2023/09/09 10:30:43;;;;;;;;;;;;;;;29.53;58.47;100560.81;179909;1264;45708;-90
2023/09/09 10:34:46;;;;;;;;;;;;;;;29.62;57.45;100553.68;179310;1263;44219;-89
2023/09/09 10:38:52;;;;;;;;;;;;;;;29.74;57.73;100555.55;179185;1257;57985;-89
2023/09/09 10:42:55;;;;;;;;;;;;;;;29.85;57.21;100553.30;179580;1258;45845;-89
2023/09/09 10:47:00;;;;;;;;;;;;;;;29.88;57.66;100545.18;179873;1256;45791;-89
2023/09/09 10:51:05;;;;;;;;;;;;;;;29.86;56.72;100543.35;179605;1260;45991;-89
2023/09/09 10:55:12;;;;;;;;;;;;;;;29.91;56.61;100536.30;179320;1256;279855;-89
2023/09/09 10:59:21;;;;;;;;;;;;;;;29.95;57.36;100542.39;179578;1257;58473;-89
2023/09/09 11:03:27;;;;;;;;;;;;;;;30.05;57.71;100544.07;179654;1256;45778;-89
2023/09/09 11:07:42;;;;;;;;;;;;;;;30.19;56.55;100542.70;179571;1257;45766;-89
2023/09/09 11:11:46;;;;;;;;;;;;;;;30.25;57.14;100543.39;179491;1256;45920;-90
2023/09/09 11:15:57;;;;;;;;;;;;;;;30.32;55.23;100534.39;179759;1257;45778;-90
2023/09/09 11:20:01;;;;;;;;;;;;;;;30.39;56.75;100534.25;179836;1258;58471;-89
2023/09/09 11:24:06;;;;;;;;;;;;;;;30.43;54.05;100531.01;179431;1257;45850;-89
2023/09/09 11:28:10;;;;;;;;;;;;;;;30.45;56.38;100527.58;179739;1256;44505;-89
2023/09/09 11:32:23;;;;;;;;;;;;;;;30.43;57.61;100530.52;179800;1256;43697;-90
2023/09/09 11:36:30;;;;;;;;;;;;;;;30.53;55.45;100526.48;179898;1257;45717;-89
2023/09/09 11:40:34;;;;;;;;;;;;;;;30.58;54.64;100523.42;179692;1258;60154;-90
2023/09/09 11:44:41;;;;;;;;;;;;;;;30.58;55.66;100522.44;180116;1256;43747;-89
2023/09/09 11:48:45;;;;;;;;;;;;;;;30.56;55.23;100520.44;179820;1256;44511;-90
2023/09/09 11:52:49;;;;;;;;;;;;;;;30.60;54.95;100516.48;179882;1256;44531;-90
2023/09/09 11:57:02;;;;;;;;;;;;;;;30.57;56.34;100512.11;179936;1256;44278;-90
2023/09/09 12:01:07;;;;;;;;;;;;;;;30.55;55.75;100512.30;180337;1256;59376;-90
2023/09/09 12:05:14;;;;;;;;;;;;;;;30.55;58.16;100509.88;180339;1259;43803;-89
2023/09/09 12:09:18;;;;;;;;;;;;;;;30.58;57.22;100501.58;179802;1256;45812;-89
2023/09/09 12:13:22;;;;;;;;;;;;;;;30.56;57.10;100499.41;179977;1256;45714;-89
2023/09/09 12:17:28;;;;;;;;;;;;;;;30.56;56.39;100498.97;180250;1256;43832;-89
2023/09/09 12:21:42;;;;;;;;;;;;;;;30.55;57.17;100499.52;181282;1256;57868;-90
2023/09/09 12:25:45;;;;;;;;;;;;;;;30.66;56.47;100495.94;179933;1256;45810;-89
2023/09/09 12:29:49;;;;;;;;;;;;;;;30.77;55.95;100486.41;179781;1257;45741;-89
2023/09/09 12:33:55;;;;;;;;;;;;;;;30.82;56.24;100491.90;179985;1256;44505;-90
2023/09/09 12:37:59;;;;;;;;;;;;;;;30.76;54.95;100490.73;180432;1256;46013;-89
2023/09/09 12:42:04;;;;;;;;;;;;;;;30.68;54.33;100482.56;180126;1256;58251;-90
2023/09/09 12:46:12;;;;;;;;;;;;;;;30.71;55.32;100479.36;179591;1256;45892;-89
2023/09/09 12:50:20;;;;;;;;;;;;;;;30.74;55.10;100478.23;179838;1256;45773;-89
2023/09/09 12:54:24;;;;;;;;;;;;;;;30.73;54.81;100479.23;180037;1256;45611;-89
2023/09/09 12:58:27;;;;;;;;;;;;;;;30.79;54.84;100473.52;179927;1257;46155;-90
2023/09/09 13:02:31;;;;;;;;;;;;;;;30.89;57.42;100473.87;179778;1257;58054;-90
2023/09/09 13:06:38;;;;;;;;;;;;;;;30.90;54.84;100469.91;180142;1256;43895;-89
2023/09/09 13:10:42;;;;;;;;;;;;;;;30.71;55.45;100466.85;180010;1257;45882;-90
2023/09/09 13:14:46;;;;;;;;;;;;;;;30.72;54.23;100464.16;180416;1256;47189;-89
2023/09/09 13:18:51;;;;;;;;;;;;;;;30.60;55.33;100459.20;180100;1257;45842;-90
2023/09/09 13:22:55;;;;;;;;;;;;;;;30.56;55.51;100460.14;180453;1256;57738;-90
2023/09/09 13:27:02;;;;;;;;;;;;;;;30.66;55.12;100460.02;179926;1257;45860;-90
2023/09/09 13:31:08;;;;;;;;;;;;;;;30.67;55.71;100458.67;179907;1256;45694;-90
2023/09/09 13:35:11;;;;;;;;;;;;;;;30.73;54.40;100463.95;179906;1256;44467;-90
2023/09/09 13:39:15;;;;;;;;;;;;;;;30.80;54.84;100460.19;180139;1256;44059;-90
2023/09/09 13:43:19;;;;;;;;;;;;;;;30.82;53.79;100454.44;179992;1256;58583;-90
2023/09/09 13:47:23;;;;;;;;;;;;;;;30.82;53.55;100452.58;180045;1257;45990;-89
2023/09/09 13:51:27;;;;;;;;;;;;;;;30.82;53.58;100455.33;179929;1256;44396;-90
2023/09/09 13:55:33;;;;;;;;;;;;;;;30.75;54.96;100450.96;179891;1257;45733;-90
2023/09/09 13:59:37;;;;;;;;;;;;;;;30.68;55.22;100446.40;180210;1258;43409;-89
2023/09/09 14:03:41;;;;;;;;;;;;;;;30.61;55.42;100444.31;179937;1256;58586;-90
2023/09/09 14:07:46;;;;;;;;;;;;;;;30.60;56.40;100442.39;179559;1257;45133;-89
2023/09/09 14:11:49;;;;;;;;;;;;;;;30.68;55.69;100435.52;179759;1256;43675;-90
2023/09/09 14:15:56;;;;;;;;;;;;;;;30.68;54.41;100430.80;179707;1256;45691;-90
2023/09/09 14:20:00;;;;;;;;;;;;;;;30.67;54.30;100425.46;180103;1256;46037;-90
2023/09/09 14:24:07;;;;;;;;;;;;;;;30.69;55.42;100418.40;179803;1256;60309;-91
2023/09/09 14:28:17;;;;;;;;;;;;;;;30.72;55.25;100422.98;180267;1256;44221;-91
2023/09/09 14:32:21;;;;;;;;;;;;;;;30.76;55.71;100419.02;180285;1257;43688;-91
2023/09/09 14:36:25;;;;;;;;;;;;;;;30.83;55.39;100424.04;180086;1256;45829;-91
2023/09/09 14:40:29;;;;;;;;;;;;;;;30.78;54.81;100423.66;180093;1256;44573;-91
2023/09/09 14:44:33;;;;;;;;;;;;;;;30.78;54.23;100424.16;180169;1257;60420;-91
2023/09/09 14:48:58;;;;;;;;;;;;;;;30.80;55.27;100419.39;180184;1257;44479;-90
2023/09/09 14:53:02;;;;;;;;;;;;;;;30.83;55.16;100422.27;180032;1257;45772;-91
2023/09/09 14:57:08;;;;;;;;;;;;;;;30.77;55.75;100416.95;179985;1257;45784;-91
2023/09/09 15:01:12;;;;;;;;;;;;;;;30.74;55.76;100419.29;180085;1256;45798;-90
2023/09/09 15:05:36;;;;;;;;;;;;;;;30.70;56.23;100409.95;180387;1258;57973;-90
2023/09/09 15:09:40;;;;;;;;;;;;;;;30.63;55.73;100411.03;179795;1259;45752;-90
2023/09/09 15:13:45;;;;;;;;;;;;;;;30.59;56.27;100405.15;179993;1259;45730;-90
2023/09/09 15:17:52;;;;;;;;;;;;;;;30.53;55.84;100399.19;180441;1262;44247;-90
2023/09/09 15:21:59;;;;;;;;;;;;;;;30.49;56.04;100398.00;179985;1259;43875;-90
2023/09/09 15:26:03;;;;;;;;;;;;;;;30.42;56.17;100395.02;179943;1259;59159;-90
2023/09/09 15:30:07;;;;;;;;;;;;;;;30.26;56.93;100397.41;179878;1258;44226;-90
2023/09/09 15:34:11;;;;;;;;;;;;;;;30.16;57.70;100395.20;179750;1262;45923;-89
2023/09/09 15:38:15;;;;;;;;;;;;;;;30.05;57.77;100394.54;180080;1258;45782;-90
2023/09/09 15:42:18;;;;;;;;;;;;;;;29.94;57.92;100394.98;179912;1258;43960;-90
2023/09/09 15:46:22;;;;;;;;;;;;;;;29.87;58.02;100398.13;180116;1258;57937;-90
2023/09/09 15:50:29;;;;;;;;;;;;;;;29.84;58.25;100394.34;179510;1259;45722;-90
2023/09/09 15:54:33;;;;;;;;;;;;;;;29.79;58.62;100393.71;179515;1258;45799;-89
2023/09/09 15:58:36;;;;;;;;;;;;;;;29.66;58.91;100395.95;179654;1259;45788;-90
2023/09/09 16:02:41;;;;;;;;;;;;;;;29.55;59.69;100398.42;179497;1259;44444;-89
2023/09/09 16:06:45;;;;;;;;;;;;;;;29.43;60.10;100392.09;179417;1259;57505;-90
2023/09/09 16:10:49;;;;;;;;;;;;;;;29.26;60.07;100395.67;179590;1259;45104;-91
2023/09/09 16:14:52;;;;;;;;;;;;;;;29.13;60.97;100398.52;179573;1257;45122;-90
2023/09/09 16:18:56;;;;;;;;;;;;;;;29.00;61.87;100396.16;179460;1259;45466;-89
2023/09/09 16:23:00;;;;;;;;;;;;;;;28.87;62.47;100394.61;179590;1259;45780;-90
2023/09/09 16:27:04;;;;;;;;;;;;;;;28.73;62.74;100392.85;179642;1259;58090;-89
2023/09/09 16:31:09;;;;;;;;;;;;;;;28.56;63.10;100394.17;179356;1258;45003;-89
2023/09/09 16:35:13;;;;;;;;;;;;;;;28.36;63.84;100397.82;179872;1258;45921;-89
2023/09/09 16:39:17;;;;;;;;;;;;;;;28.17;64.94;100398.75;179916;1261;46571;-89
2023/09/09 16:43:21;;;;;;;;;;;;;;;28.01;65.82;100396.84;179841;1259;45822;-89
2023/09/09 16:47:25;;;;;;;;;;;;;;;27.85;66.51;100394.73;179559;1260;59577;-89
2023/09/09 16:51:28;;;;;;;;;;;;;;;27.70;67.47;100404.09;179780;1259;44382;-88
2023/09/09 16:55:32;;;;;;;;;;;;;;;27.53;68.25;100406.16;180058;1259;45911;-90
2023/09/09 16:59:39;;;;;;;;;;;;;;;27.35;68.76;100405.73;180028;1259;45103;-90
2023/09/09 17:03:46;;;;;;;;;;;;;;;27.22;69.37;100407.80;179845;1260;45695;-90
2023/09/09 17:07:51;;;;;;;;;;;;;;;27.10;70.00;100410.16;179951;1258;57707;-90
2023/09/09 17:11:55;;;;;;;;;;;;;;;26.98;70.57;100412.55;180695;1262;45949;-90
2023/09/09 17:15:58;;;;;;;;;;;;;;;26.81;71.17;100413.32;180292;1259;43993;-90
2023/09/09 17:20:03;;;;;;;;;;;;;;;26.66;71.73;100417.86;179816;1259;45761;-90
2023/09/09 17:24:07;;;;;;;;;;;;;;;26.48;72.54;100418.13;179805;1261;45789;-91
2023/09/09 17:28:11;;;;;;;;;;;;;;;26.30;73.00;100423.77;179861;1261;57777;-90
2023/09/09 17:32:15;;;;;;;;;;;;;;;26.09;74.09;100427.86;179808;1259;44250;-90
2023/09/09 17:36:19;;;;;;;;;;;;;;;25.92;74.92;100429.08;179442;1259;45743;-90
2023/09/09 17:40:23;;;;;;;;;;;;;;;25.75;75.54;100433.84;179566;1259;44331;-90
2023/09/09 17:44:26;;;;;;;;;;;;;;;25.64;76.18;100434.19;179825;1260;43763;-90
2023/09/09 17:48:30;;;;;;;;;;;;;;;25.49;77.29;100432.16;179716;1259;59284;-90
2023/09/09 17:52:35;;;;;;;;;;;;;;;25.32;77.95;100434.85;179551;1258;45671;-89
2023/09/09 18:01:27;;;;;;;;;;;;;;;25.00;79.70;100442.36;178703;1266;45784;-87
2023/09/09 18:05:35;;;;;;;;;;;;;;;24.85;81.05;100446.95;179720;1264;43705;-89
2023/09/09 18:09:39;;;;;;;;;;;;;;;24.61;82.15;100448.65;178845;1263;58433;-88
2023/09/09 18:13:44;;;;;;;;;;;;;;;24.33;83.42;100448.78;179322;1264;45884;-89
2023/09/09 18:17:47;;;;;;;;;;;;;;;24.09;85.14;100449.02;178970;1263;45733;-89
2023/09/09 18:21:51;;;;;;;;;;;;;;;23.91;84.30;100451.46;179049;1263;45915;-89
2023/09/09 18:25:56;;;;;;;;;;;;;;;23.76;84.57;100458.49;179234;1262;43977;-88
2023/09/09 18:30:00;;;;;;;;;;;;;;;23.61;85.43;100463.67;178871;1264;59414;-89
2023/09/09 18:34:05;;;;;;;;;;;;;;;23.46;86.25;100457.73;178878;1263;45836;-89
2023/09/09 18:38:09;;;;;;;;;;;;;;;23.27;89.45;100460.50;179120;1263;45928;-89
2023/09/09 18:42:12;;;;;;;;;;;;;;;23.11;89.32;100468.19;179159;1264;44486;-89
2023/09/09 18:46:16;;;;;;;;;;;;;;;23.03;89.29;100469.94;179280;1263;45404;-89
2023/09/09 18:50:20;;;;;;;;;;;;;;;22.94;89.55;100471.30;179083;1263;57757;-89
2023/09/09 18:54:23;;;;;;;;;;;;;;;22.85;89.81;100468.98;179044;1264;44467;-88
2023/09/09 18:58:27;;;;;;;;;;;;;;;22.79;89.85;100473.50;179061;1263;45797;-88
2023/09/09 19:02:31;;;;;;;;;;;;;;;22.77;90.42;100475.36;179158;1264;45557;-89
2023/09/09 19:06:35;;;;;;;;;;;;;;;22.74;91.35;100473.41;179148;1265;46008;-89
2023/09/09 19:10:38;;;;;;;;;;;;;;;22.70;92.17;100472.92;179165;1262;57731;-88
2023/09/09 19:14:42;;;;;;;;;;;;;;;22.63;92.37;100472.30;178510;1265;45832;-88
2023/09/09 19:18:47;;;;;;;;;;;;;;;22.57;93.22;100473.70;179004;1264;45836;-88
2023/09/09 19:22:50;;;;;;;;;;;;;;;22.52;93.87;100479.02;179096;1266;45736;-88
2023/09/09 19:26:54;;;;;;;;;;;;;;;22.49;93.97;100477.73;178443;1264;44905;-89
2023/09/09 19:30:57;;;;;;;;;;;;;;;22.44;94.54;100476.77;178737;1264;57741;-88
2023/09/09 19:35:01;;;;;;;;;;;;;;;22.37;95.23;100479.40;178783;1264;45753;-89
2023/09/09 19:39:04;;;;;;;;;;;;;;;22.31;95.54;100481.79;178615;1264;45549;-89
2023/09/09 19:43:08;;;;;;;;;;;;;;;22.28;95.90;100476.84;178621;1264;45848;-90
2023/09/09 19:47:11;;;;;;;;;;;;;;;22.23;96.42;100478.32;178649;1263;44541;-89
2023/09/09 19:51:14;;;;;;;;;;;;;;;22.18;96.61;100476.60;178596;1264;58028;-90
2023/09/09 19:55:18;;;;;;;;;;;;;;;22.14;97.05;100480.22;178793;1264;45813;-90
2023/09/09 19:59:22;;;;;;;;;;;;;;;22.08;97.80;100481.13;178855;1264;45902;-89
2023/09/09 20:03:25;;;;;;;;;;;;;;;22.02;98.45;100482.54;179010;1264;45796;-90
2023/09/09 20:07:29;;;;;;;;;;;;;;;21.91;99.71;100481.75;179035;1264;45926;-89
2023/09/09 20:11:32;;;;;;;;;;;;;;;21.77;100.00;100481.72;178821;1266;58019;-89
2023/09/09 20:15:38;;;;;;;;;;;;;;;21.60;100.00;100476.95;179105;1263;45762;-90
2023/09/09 20:19:44;;;;;;;;;;;;;;;21.46;100.00;100478.59;178456;1264;45057;-89
2023/09/09 20:23:47;;;;;;;;;;;;;;;21.44;100.00;100476.15;179165;1263;44232;-90
2023/09/09 20:27:52;;;;;;;;;;;;;;;21.45;100.00;100469.13;178462;1267;45780;-90
2023/09/09 20:31:56;;;;;;;;;;;;;;;21.48;100.00;100470.48;179148;1264;59802;-89
2023/09/09 20:36:01;;;;;;;;;;;;;;;21.46;100.00;100471.21;178723;1264;45797;-89
2023/09/09 20:40:10;;;;;;;;;;;;;;;21.42;100.00;100470.80;178989;1264;44401;-90
2023/09/09 20:44:13;;;;;;;;;;;;;;;21.37;100.00;100473.48;179164;1263;45810;-89